Time;durP1;ratioP1;P1;durP2;ratioP2;P2;SDS_P1;SDS_P2;PMS_P1;PMS_P2;Temp;Humidity;BMP_temperature;BMP_pressure;BME280_temperature;BME280_humidity;BME280_pressure;Samples;Min_cycle;Max_cycle;Signal;HPM_P1;HPM_P2
2022/12/07 00:01:34;;;;;;;3.58;1.58;;;24.30;55.00;;;;;;4121832;28;20315;-41
2022/12/07 00:04:06;;;;;;;2.90;1.40;;;24.40;55.00;;;;;;4123030;28;20046;-48
2022/12/07 00:06:28;;;;;;;3.28;1.80;;;24.40;55.00;;;;;;4126090;28;20046;-43
2022/12/07 00:08:51;;;;;;;3.35;1.80;;;24.40;55.00;;;;;;4125628;28;20205;-43
2022/12/07 00:11:17;;;;;;;3.22;1.85;;;24.40;55.00;;;;;;4123453;28;20081;-47
2022/12/07 00:13:41;;;;;;;3.63;1.77;;;24.40;55.00;;;;;;4127843;28;20038;-44
2022/12/07 00:16:07;;;;;;;3.13;1.55;;;24.40;55.00;;;;;;4121424;28;20034;-43
2022/12/07 00:18:30;;;;;;;2.33;1.77;;;24.40;54.90;;;;;;4123576;28;20422;-42
2022/12/07 00:20:52;;;;;;;3.38;1.60;;;24.40;54.80;;;;;;4126073;28;20047;-42
2022/12/07 00:23:15;;;;;;;2.63;1.70;;;24.40;54.80;;;;;;4125210;28;20050;-43
2022/12/07 00:25:37;;;;;;;2.90;1.60;;;24.40;54.80;;;;;;4124454;28;20092;-48
2022/12/07 00:28:00;;;;;;;3.47;1.60;;;24.50;54.70;;;;;;4122624;28;20537;-47
2022/12/07 00:30:23;;;;;;;2.58;1.35;;;24.40;54.60;;;;;;4127960;28;20089;-44
2022/12/07 00:32:46;;;;;;;3.15;1.50;;;24.50;54.60;;;;;;4125967;28;20414;-42
2022/12/07 00:35:09;;;;;;;2.85;1.60;;;24.50;54.50;;;;;;4125226;28;20548;-43
2022/12/07 00:37:31;;;;;;;2.08;1.27;;;24.50;54.50;;;;;;4125845;28;20042;-43
2022/12/07 00:39:54;;;;;;;3.35;1.50;;;24.50;54.50;;;;;;4126003;28;20060;-45
2022/12/07 00:42:16;;;;;;;2.63;1.60;;;24.50;54.50;;;;;;4126947;28;20030;-45
2022/12/07 00:44:39;;;;;;;3.28;1.75;;;24.60;54.50;;;;;;4127033;28;20363;-45
2022/12/07 00:47:01;;;;;;;2.88;1.48;;;24.50;54.40;;;;;;4125054;28;20104;-47
2022/12/07 00:49:24;;;;;;;2.35;1.33;;;24.50;54.30;;;;;;4118166;28;20121;-46
2022/12/07 00:51:49;;;;;;;2.72;1.48;;;24.60;54.30;;;;;;4125518;28;20140;-44
2022/12/07 00:54:11;;;;;;;2.20;1.33;;;24.60;54.30;;;;;;4124791;28;20124;-43
2022/12/07 00:56:34;;;;;;;2.95;1.20;;;24.60;54.20;;;;;;4125330;28;20049;-46
2022/12/07 00:59:02;;;;;;;2.87;1.50;;;24.60;54.20;;;;;;4126168;28;20034;-43
2022/12/07 01:01:28;;;;;;;2.40;1.40;;;24.60;54.20;;;;;;4123610;28;20070;-42
2022/12/07 01:03:51;;;;;;;2.28;1.60;;;24.60;54.10;;;;;;4127754;28;20524;-43
2022/12/07 01:06:18;;;;;;;1.85;1.30;;;24.70;54.10;;;;;;4126313;28;20449;-44
2022/12/07 01:08:40;;;;;;;3.35;1.50;;;24.70;54.00;;;;;;4125831;28;20522;-48
2022/12/07 01:11:08;;;;;;;2.00;1.25;;;24.70;54.00;;;;;;4123797;28;20467;-44
2022/12/07 01:13:32;;;;;;;1.30;1.20;;;24.70;53.90;;;;;;4122823;28;20053;-45
2022/12/07 01:16:00;;;;;;;2.05;1.40;;;24.70;53.90;;;;;;4126271;28;20506;-47
2022/12/07 01:18:23;;;;;;;2.55;1.30;;;24.70;53.80;;;;;;4123605;28;20039;-42
2022/12/07 01:20:56;;;;;;;2.65;1.27;;;24.70;53.80;;;;;;4126310;28;20038;-41
2022/12/07 01:23:19;;;;;;;1.98;1.17;;;24.70;53.80;;;;;;4124161;28;20120;-42
2022/12/07 01:25:41;;;;;;;2.55;1.27;;;24.80;53.80;;;;;;4127239;28;20045;-43
2022/12/07 01:28:04;;;;;;;5.00;1.38;;;24.70;53.70;;;;;;4124603;28;20121;-46
2022/12/07 01:30:27;;;;;;;1.58;1.27;;;24.70;53.60;;;;;;4143716;28;20053;-45
2022/12/07 01:32:49;;;;;;;2.88;1.50;;;24.80;53.70;;;;;;4125388;28;20046;-49
2022/12/07 01:35:12;;;;;;;2.83;1.20;;;24.80;53.70;;;;;;4125454;28;20077;-42
2022/12/07 01:37:39;;;;;;;1.80;1.23;;;24.80;53.60;;;;;;4123689;28;20039;-45
2022/12/07 01:40:01;;;;;;;2.22;1.13;;;24.80;53.60;;;;;;4123230;28;20042;-49
2022/12/07 01:42:24;;;;;;;1.88;1.05;;;24.80;53.50;;;;;;4128365;28;20042;-48
2022/12/07 01:45:23;;;;;;;3.42;1.27;;;24.80;53.50;;;;;;4121970;28;20189;-46
2022/12/07 01:47:53;;;;;;;1.33;1.00;;;24.80;53.40;;;;;;4118520;28;20058;-42
2022/12/07 01:50:16;;;;;;;1.98;1.20;;;24.80;53.40;;;;;;4124781;28;20407;-44
2022/12/07 01:52:40;;;;;;;2.35;1.00;;;24.80;53.40;;;;;;4125298;28;20395;-43
2022/12/07 01:55:04;;;;;;;;;;;24.80;53.30;;;;;;4124106;28;20037;-42
2022/12/07 01:57:27;;;;;;;1.40;1.00;;;24.90;53.40;;;;;;4125199;28;19914;-42
2022/12/07 01:59:53;;;;;;;1.65;1.23;;;24.90;53.30;;;;;;4127095;28;20049;-43
2022/12/07 02:02:34;;;;;;;2.33;1.20;;;24.90;53.40;;;;;;4123538;28;20033;-44
2022/12/07 02:04:57;;;;;;;1.63;0.75;;;24.90;53.30;;;;;;4120253;28;20042;-42
2022/12/07 02:07:22;;;;;;;2.08;1.13;;;24.90;53.20;;;;;;4123931;28;20042;-44
2022/12/07 02:09:44;;;;;;;1.52;0.98;;;25.00;53.20;;;;;;4124930;28;20088;-43
2022/12/07 02:12:07;;;;;;;2.60;1.27;;;25.00;53.20;;;;;;4121531;28;20046;-43
2022/12/07 02:14:29;;;;;;;2.53;1.13;;;25.00;53.20;;;;;;4123016;28;20554;-45
2022/12/07 02:17:14;;;;;;;1.92;1.13;;;25.00;53.20;;;;;;4123948;28;20046;-44
2022/12/07 02:20:04;;;;;;;1.35;0.90;;;25.00;53.20;;;;;;4122440;28;20125;-43
2022/12/07 02:22:54;;;;;;;1.58;0.95;;;25.00;53.10;;;;;;4123835;28;20034;-44
2022/12/07 02:25:45;;;;;;;1.77;1.02;;;25.00;53.00;;;;;;4121416;28;20461;-48
2022/12/07 02:28:34;;;;;;;2.03;0.82;;;25.10;53.10;;;;;;4136334;28;20595;-44
2022/12/07 02:31:01;;;;;;;1.88;1.08;;;25.10;53.00;;;;;;4123961;28;20042;-43
2022/12/07 02:33:47;;;;;;;1.55;0.93;;;25.10;53.00;;;;;;4120181;28;20472;-43
2022/12/07 02:36:22;;;;;;;1.10;0.90;;;25.10;52.90;;;;;;4122795;28;20157;-42
2022/12/07 02:39:04;;;;;;;1.52;0.90;;;25.10;52.90;;;;;;4124484;28;20054;-42
2022/12/07 02:41:27;;;;;;;1.40;0.73;;;25.10;52.90;;;;;;4119079;28;20089;-44
2022/12/07 02:43:59;;;;;;;1.20;0.85;;;25.10;52.80;;;;;;4123660;28;20046;-42
2022/12/07 02:46:42;;;;;;;1.17;0.90;;;25.10;52.80;;;;;;4120297;28;20045;-42
2022/12/07 02:49:05;;;;;;;1.48;0.80;;;25.10;52.80;;;;;;4122622;28;20065;-45
2022/12/07 02:51:31;;;;;;;2.72;0.93;;;25.20;52.80;;;;;;4123748;28;20065;-43
2022/12/07 02:53:54;;;;;;;1.58;0.90;;;25.20;52.70;;;;;;4123195;28;20040;-44
2022/12/07 02:56:44;;;;;;;1.00;0.70;;;25.20;52.70;;;;;;4124184;28;20046;-43
2022/12/07 02:59:06;;;;;;;0.57;0.47;;;25.20;52.60;;;;;;4123124;28;20441;-43
2022/12/07 03:01:29;;;;;;;1.13;0.68;;;25.20;52.60;;;;;;4122561;28;20038;-44
2022/12/07 03:04:08;;;;;;;1.40;0.90;;;25.20;52.60;;;;;;4123347;28;20045;-44
2022/12/07 03:06:41;;;;;;;1.30;1.00;;;25.30;52.50;;;;;;4121826;28;20078;-42
2022/12/07 03:09:27;;;;;;;0.77;0.57;;;25.30;52.50;;;;;;4121460;28;20897;-42
2022/12/07 03:12:07;;;;;;;1.20;0.80;;;25.30;52.40;;;;;;4132451;28;20053;-42
2022/12/07 03:14:39;;;;;;;3.50;1.00;;;25.30;52.30;;;;;;4120835;28;20053;-48
2022/12/07 03:17:19;;;;;;;1.67;0.88;;;25.30;52.30;;;;;;4121523;28;20651;-46
2022/12/07 03:19:44;;;;;;;2.20;1.00;;;25.40;52.30;;;;;;4122830;28;20549;-44
2022/12/07 03:22:11;;;;;;;1.38;0.90;;;25.30;52.20;;;;;;4122890;28;20252;-44
2022/12/07 03:24:39;;;;;;;2.45;0.73;;;25.40;52.30;;;;;;4124546;28;20038;-42
2022/12/07 03:27:19;;;;;;;0.82;0.63;;;25.40;52.20;;;;;;4122252;28;20169;-41
2022/12/07 03:29:48;;;;;;;1.33;0.70;;;25.40;52.10;;;;;;4120898;28;20508;-41
2022/12/07 03:32:30;;;;;;;2.28;0.90;;;25.40;52.00;;;;;;4122568;28;20101;-43
2022/12/07 03:35:12;;;;;;;0.88;0.70;;;25.40;52.00;;;;;;4126099;28;20568;-45
2022/12/07 03:37:44;;;;;;;2.70;0.90;;;25.40;52.00;;;;;;4121303;28;20173;-44
2022/12/07 03:40:25;;;;;;;0.95;0.60;;;25.40;51.90;;;;;;4120570;28;20434;-43
2022/12/07 03:42:47;;;;;;;2.03;0.90;;;25.40;51.90;;;;;;4122111;28;20046;-41
2022/12/07 03:45:11;;;;;;;0.88;0.50;;;25.50;51.80;;;;;;4122570;28;20042;-44
2022/12/07 03:48:04;;;;;;;0.95;0.60;;;25.50;51.80;;;;;;4113592;28;20183;-44
2022/12/07 03:50:53;;;;;;;1.95;0.68;;;25.50;51.70;;;;;;4116292;28;20034;-50
2022/12/07 03:53:40;;;;;;;2.33;0.70;;;25.50;51.60;;;;;;4120723;28;20081;-42
2022/12/07 03:56:03;;;;;;;1.80;0.88;;;25.50;51.50;;;;;;4117951;28;20038;-44
2022/12/07 03:58:27;;;;;;;3.03;0.70;;;25.50;51.40;;;;;;4119264;28;20137;-43
2022/12/07 04:00:49;;;;;;;;;;;25.50;51.30;;;;;;4119211;28;20154;-45
2022/12/07 04:03:12;;;;;;;1.95;0.95;;;25.50;51.30;;;;;;4118289;28;20001;-43
2022/12/07 04:05:35;;;;;;;1.45;0.80;;;25.60;51.30;;;;;;4120179;28;20162;-43
2022/12/07 04:07:57;;;;;;;1.08;0.70;;;25.60;51.30;;;;;;4121113;28;20037;-44
2022/12/07 04:10:20;;;;;;;1.77;0.80;;;25.60;51.20;;;;;;4124709;28;20567;-44
2022/12/07 04:12:43;;;;;;;0.95;0.68;;;25.60;51.30;;;;;;4118950;28;20879;-46
2022/12/07 04:15:06;;;;;;;1.20;0.63;;;25.60;51.20;;;;;;4118913;28;20370;-46
2022/12/07 04:17:29;;;;;;;1.20;0.68;;;25.60;51.20;;;;;;4117230;28;20096;-42
2022/12/07 04:19:51;;;;;;;1.80;0.90;;;25.60;51.20;;;;;;4115832;28;20059;-45
2022/12/07 04:22:14;;;;;;;0.50;0.50;;;25.60;50.60;;;;;;4117636;28;20043;-43
2022/12/07 04:24:36;;;;;;;1.17;0.80;;;25.60;50.30;;;;;;4118230;28;20042;-44
2022/12/07 04:26:59;;;;;;;2.17;1.20;;;25.60;50.40;;;;;;4119070;28;20096;-46
2022/12/07 04:29:22;;;;;;;1.00;0.88;;;25.60;49.40;;;;;;4118229;28;20062;-48
2022/12/07 04:31:45;;;;;;;1.27;0.70;;;25.60;49.20;;;;;;4119511;28;20477;-43
2022/12/07 04:34:08;;;;;;;1.77;0.75;;;25.60;48.50;;;;;;4115240;28;20128;-46
2022/12/07 04:36:31;;;;;;;1.83;0.87;;;25.60;48.10;;;;;;4119005;28;20039;-45
2022/12/07 04:38:57;;;;;;;2.45;1.00;;;25.60;48.10;;;;;;4119031;28;20133;-46
2022/12/07 04:41:26;;;;;;;1.73;1.00;;;25.60;47.40;;;;;;4120676;28;20410;-43
2022/12/07 04:43:49;;;;;;;1.77;0.70;;;25.60;47.10;;;;;;4116153;28;20089;-48
2022/12/07 04:46:11;;;;;;;1.75;0.60;;;25.60;46.80;;;;;;4117900;28;20078;-46
2022/12/07 04:48:34;;;;;;;1.15;0.50;;;25.60;46.30;;;;;;4121244;28;20034;-44
2022/12/07 04:50:56;;;;;;;2.35;0.82;;;25.60;45.50;;;;;;4121006;28;20124;-45
2022/12/07 04:53:20;;;;;;;0.93;0.65;;;25.60;45.30;;;;;;4121219;28;20568;-46
2022/12/07 04:55:42;;;;;;;1.23;0.70;;;25.60;45.30;;;;;;4120470;28;20042;-43
2022/12/07 04:58:05;;;;;;;1.15;0.68;;;25.60;45.70;;;;;;4119907;28;20096;-43
2022/12/07 05:00:27;;;;;;;2.95;0.90;;;25.60;45.30;;;;;;4120797;28;20041;-45
2022/12/07 05:02:50;;;;;;;1.23;0.65;;;25.60;45.90;;;;;;4119648;28;20482;-44
2022/12/07 05:05:13;;;;;;;1.30;0.68;;;25.60;46.00;;;;;;4124263;28;20100;-46
2022/12/07 05:07:35;;;;;;;1.45;0.65;;;25.60;45.50;;;;;;4121146;28;20034;-48
2022/12/07 05:09:57;;;;;;;1.10;0.50;;;25.60;45.20;;;;;;4113578;28;20081;-44
2022/12/07 05:12:20;;;;;;;0.77;0.50;;;25.60;45.30;;;;;;4120021;28;20053;-46
2022/12/07 05:14:43;;;;;;;1.35;0.60;;;25.60;45.40;;;;;;4119879;28;20402;-43
2022/12/07 05:17:05;;;;;;;1.73;0.93;;;25.60;45.30;;;;;;4118230;28;20432;-50
2022/12/07 05:19:28;;;;;;;0.95;0.63;;;25.60;45.40;;;;;;4119004;28;20048;-44
2022/12/07 05:21:50;;;;;;;3.92;0.52;;;25.60;45.60;;;;;;4115245;28;20134;-45
2022/12/07 05:24:14;;;;;;;0.85;0.45;;;25.60;45.50;;;;;;4115917;28;20054;-44
2022/12/07 05:26:37;;;;;;;1.20;0.65;;;25.60;45.60;;;;;;4118885;28;20604;-47
2022/12/07 05:29:00;;;;;;;1.42;0.85;;;25.60;45.50;;;;;;4120473;28;20118;-43
2022/12/07 05:31:25;;;;;;;0.52;0.50;;;25.60;45.50;;;;;;4120420;28;20031;-44
2022/12/07 05:33:48;;;;;;;1.13;0.70;;;25.60;45.50;;;;;;4120053;28;20052;-44
2022/12/07 05:36:10;;;;;;;2.00;0.57;;;25.70;45.50;;;;;;4122796;28;20113;-44
2022/12/07 05:38:33;;;;;;;0.70;0.40;;;25.60;45.40;;;;;;4123412;28;20054;-44
2022/12/07 05:40:55;;;;;;;1.50;0.60;;;25.70;45.60;;;;;;4121110;28;20121;-44
2022/12/07 05:43:18;;;;;;;0.63;0.50;;;25.60;45.50;;;;;;4123667;28;20042;-43
2022/12/07 05:45:41;;;;;;;1.15;0.60;;;25.60;45.60;;;;;;4123940;28;20096;-44
2022/12/07 05:48:04;;;;;;;1.67;0.60;;;25.60;45.50;;;;;;4119713;28;20383;-43
2022/12/07 05:50:27;;;;;;;1.30;0.50;;;25.60;45.60;;;;;;4122207;28;20034;-43
2022/12/07 05:52:50;;;;;;;0.80;0.57;;;25.60;45.40;;;;;;4127986;28;20054;-43
2022/12/07 05:55:12;;;;;;;1.20;0.80;;;25.70;45.30;;;;;;4124667;28;20149;-43
2022/12/07 05:57:35;;;;;;;1.63;0.68;;;25.60;45.40;;;;;;4124860;28;20038;-43
2022/12/07 05:59:58;;;;;;;0.73;0.45;;;25.70;45.70;;;;;;4122389;28;20068;-46
2022/12/07 06:02:20;;;;;;;0.90;0.40;;;25.70;45.40;;;;;;4125324;28;20510;-44
2022/12/07 06:04:45;;;;;;;1.25;0.55;;;25.70;45.50;;;;;;4122525;28;20046;-44
2022/12/07 06:07:08;;;;;;;0.68;0.30;;;25.70;45.60;;;;;;4122202;28;20069;-46
2022/12/07 06:09:31;;;;;;;0.55;0.30;;;25.70;45.60;;;;;;4119501;28;20042;-43
2022/12/07 06:14:36;;;;;;;2.58;0.77;;;25.70;45.50;;;;;;4120539;28;20343;-49
2022/12/07 06:16:59;;;;;;;2.03;0.50;;;25.70;45.50;;;;;;4120219;28;20456;-43
2022/12/07 06:19:22;;;;;;;0.82;0.60;;;25.70;45.60;;;;;;4120554;28;20072;-44
2022/12/07 06:21:44;;;;;;;1.30;0.70;;;25.70;45.50;;;;;;4118588;28;20046;-44
2022/12/07 06:24:07;;;;;;;1.55;0.52;;;25.70;45.50;;;;;;4120238;28;20031;-45
2022/12/07 06:26:30;;;;;;;0.43;0.43;;;25.70;45.70;;;;;;4124533;28;20037;-46
2022/12/07 06:28:52;;;;;;;1.00;0.47;;;25.70;45.80;;;;;;4120735;28;20109;-43
2022/12/07 06:31:15;;;;;;;0.65;0.50;;;25.70;45.70;;;;;;4123048;28;20076;-43
2022/12/07 06:33:37;;;;;;;1.15;0.68;;;25.70;45.90;;;;;;4122235;28;20042;-44
2022/12/07 06:36:00;;;;;;;1.35;0.47;;;25.70;46.00;;;;;;4126123;28;20405;-42
2022/12/07 06:38:23;;;;;;;0.98;0.40;;;25.70;46.00;;;;;;4122773;28;20637;-42
2022/12/07 06:40:45;;;;;;;0.68;0.57;;;25.70;45.90;;;;;;4118640;28;20112;-44
2022/12/07 06:43:07;;;;;;;0.85;0.40;;;25.70;46.10;;;;;;4121808;28;20426;-43
2022/12/07 06:45:30;;;;;;;0.43;0.40;;;25.70;46.10;;;;;;4120306;28;20035;-43
2022/12/07 06:47:52;;;;;;;0.50;0.43;;;25.70;46.30;;;;;;4121472;28;20046;-42
2022/12/07 06:50:15;;;;;;;1.05;0.70;;;25.70;46.40;;;;;;4122091;28;20049;-45
2022/12/07 06:52:38;;;;;;;0.70;0.52;;;25.70;46.50;;;;;;4121043;28;20056;-45
2022/12/07 06:55:00;;;;;;;1.08;0.50;;;25.70;46.40;;;;;;4121680;28;20034;-44
2022/12/07 06:57:23;;;;;;;0.57;0.40;;;25.70;46.50;;;;;;4119028;28;20100;-43
2022/12/07 06:59:45;;;;;;;1.98;0.93;;;25.70;46.40;;;;;;4120492;28;20158;-46
2022/12/07 07:02:09;;;;;;;4.47;0.60;;;25.70;46.40;;;;;;4122619;28;20049;-45
2022/12/07 07:04:31;;;;;;;3.53;0.70;;;25.70;46.40;;;;;;4121713;28;20034;-43
2022/12/07 07:06:54;;;;;;;1.23;0.50;;;25.70;46.20;;;;;;4122140;28;20120;-43
2022/12/07 07:09:16;;;;;;;0.85;0.55;;;25.70;46.30;;;;;;4122137;28;20045;-47
2022/12/07 07:11:39;;;;;;;2.78;0.80;;;25.70;46.20;;;;;;4123522;28;20045;-46
2022/12/07 07:14:02;;;;;;;2.08;0.65;;;25.70;46.20;;;;;;4122792;28;20042;-43
2022/12/07 07:16:24;;;;;;;0.60;0.60;;;25.70;46.20;;;;;;4120498;28;20047;-50
2022/12/07 07:18:47;;;;;;;1.10;0.70;;;25.70;46.10;;;;;;4120229;28;20086;-48
2022/12/07 07:21:10;;;;;;;1.10;0.63;;;25.70;46.20;;;;;;4126758;28;20057;-47
2022/12/07 07:23:32;;;;;;;2.00;1.08;;;25.70;46.20;;;;;;4122426;28;20035;-43
2022/12/07 07:25:55;;;;;;;0.77;0.60;;;25.70;46.30;;;;;;4127130;28;20045;-46
2022/12/07 07:28:17;;;;;;;1.63;0.80;;;25.70;46.20;;;;;;4121152;28;20482;-48
2022/12/07 07:30:40;;;;;;;2.05;1.20;;;25.70;46.30;;;;;;4125052;28;20556;-43
2022/12/07 07:33:04;;;;;;;3.00;0.82;;;25.70;46.30;;;;;;4128545;28;20137;-45
2022/12/07 07:35:27;;;;;;;1.90;1.10;;;25.70;46.30;;;;;;4127174;28;20039;-42
2022/12/07 07:37:50;;;;;;;1.50;0.90;;;25.70;46.20;;;;;;4119292;28;20576;-43
2022/12/07 07:40:13;;;;;;;2.28;1.10;;;25.70;46.40;;;;;;4125362;28;20046;-43
2022/12/07 07:42:36;;;;;;;4.97;1.20;;;25.70;46.40;;;;;;4118555;28;20116;-43
2022/12/07 07:44:58;;;;;;;2.63;0.60;;;25.70;46.50;;;;;;4121243;28;20038;-41
2022/12/07 07:47:21;;;;;;;1.35;0.90;;;25.70;46.60;;;;;;4122264;28;20545;-44
2022/12/07 07:49:44;;;;;;;2.80;0.80;;;25.70;46.70;;;;;;4118188;28;20038;-40
2022/12/07 07:52:07;;;;;;;4.22;0.90;;;25.80;47.00;;;;;;4120506;28;20054;-44
2022/12/07 07:54:29;;;;;;;34.40;3.92;;;25.80;47.20;;;;;;4120512;28;20042;-48
2022/12/07 07:56:53;;;;;;;80.22;6.00;;;25.90;47.40;;;;;;4121703;28;20730;-48
2022/12/07 07:59:16;;;;;;;41.72;4.47;;;25.90;47.60;;;;;;4118369;28;20038;-51
2022/12/07 08:01:38;;;;;;;32.93;3.00;;;25.90;47.70;;;;;;4119679;28;20038;-50
2022/12/07 08:04:01;;;;;;;39.25;3.95;;;25.90;48.00;;;;;;4118310;28;20370;-40
2022/12/07 08:06:23;;;;;;;28.90;3.38;;;26.00;48.20;;;;;;4118603;28;20053;-40
2022/12/07 08:08:46;;;;;;;11.85;1.77;;;26.00;48.40;;;;;;4117791;28;20426;-44
2022/12/07 08:11:10;;;;;;;11.32;1.88;;;26.10;48.60;;;;;;4121652;28;20034;-41
2022/12/07 08:13:33;;;;;;;17.83;1.60;;;26.10;48.60;;;;;;4118613;28;20124;-42
2022/12/07 08:15:55;;;;;;;8.45;1.73;;;26.10;48.70;;;;;;4119020;28;20070;-42
2022/12/07 08:18:18;;;;;;;5.47;1.70;;;26.10;48.70;;;;;;4122426;28;20104;-40
2022/12/07 08:20:42;;;;;;;7.05;2.15;;;26.20;48.80;;;;;;4121076;28;20782;-46
2022/12/07 08:23:05;;;;;;;9.02;4.45;;;26.20;48.80;;;;;;4121981;28;20133;-44
2022/12/07 08:25:28;;;;;;;17.70;8.05;;;26.20;48.70;;;;;;4122195;28;20095;-40
2022/12/07 08:27:51;;;;;;;17.50;7.50;;;26.20;48.40;;;;;;4122376;28;20040;-43
2022/12/07 08:30:14;;;;;;;15.85;7.15;;;26.20;48.40;;;;;;4122268;28;20274;-43
2022/12/07 08:32:37;;;;;;;12.23;6.43;;;26.20;48.40;;;;;;4121071;28;20457;-45
2022/12/07 08:34:59;;;;;;;11.07;6.00;;;26.20;48.30;;;;;;4125272;28;20118;-43
2022/12/07 08:37:22;;;;;;;9.77;5.47;;;26.20;48.30;;;;;;4124959;28;20501;-47
2022/12/07 08:39:44;;;;;;;7.45;5.05;;;26.20;48.20;;;;;;4124394;28;20050;-42
2022/12/07 08:42:07;;;;;;;7.60;4.30;;;26.20;48.20;;;;;;4120680;28;20096;-45
2022/12/07 08:44:29;;;;;;;10.05;6.40;;;26.20;48.20;;;;;;4124452;28;20049;-41
2022/12/07 08:46:59;;;;;;;12.73;7.88;;;26.30;48.40;;;;;;4126698;28;20038;-41
2022/12/07 08:49:28;;;;;;;12.30;8.88;;;26.20;48.30;;;;;;4124117;28;20121;-48
2022/12/07 08:51:50;;;;;;;11.73;7.40;;;26.20;48.30;;;;;;4125490;28;20042;-47
2022/12/07 08:54:17;;;;;;;12.30;6.78;;;26.20;48.40;;;;;;4124761;28;20466;-52
2022/12/07 08:56:40;;;;;;;12.13;6.72;;;26.20;48.30;;;;;;4120049;28;20398;-42
2022/12/07 08:59:04;;;;;;;9.02;6.05;;;26.30;48.80;;;;;;4119892;28;20038;-40
2022/12/07 09:01:26;;;;;;;;;;;26.30;49.20;;;;;;4116519;28;20038;-45
2022/12/07 09:03:49;;;;;;;6.80;4.38;;;26.30;49.10;;;;;;4119943;28;19917;-44
2022/12/07 09:06:12;;;;;;;7.07;4.25;;;26.40;49.60;;;;;;4121014;28;20034;-41
2022/12/07 09:08:42;;;;;;;5.47;3.55;;;26.40;49.70;;;;;;4121376;28;20042;-40
2022/12/07 09:11:05;;;;;;;6.65;3.15;;;26.40;49.70;;;;;;4119878;28;20406;-46
2022/12/07 09:13:27;;;;;;;5.88;3.33;;;26.50;49.70;;;;;;4120043;28;20054;-43
2022/12/07 09:15:50;;;;;;;4.40;2.80;;;26.50;49.60;;;;;;4118432;28;20042;-45
2022/12/07 09:18:12;;;;;;;4.28;2.88;;;26.60;49.80;;;;;;4114758;28;20545;-59
2022/12/07 09:20:35;;;;;;;8.32;3.20;;;26.60;49.80;;;;;;4121223;28;20044;-56
2022/12/07 09:22:57;;;;;;;9.95;2.60;;;26.60;49.70;;;;;;4119589;28;20109;-57
2022/12/07 09:25:20;;;;;;;14.23;2.78;;;26.60;49.70;;;;;;4120176;28;20434;-53
2022/12/07 09:27:43;;;;;;;9.23;2.45;;;26.60;49.80;;;;;;4119445;28;20042;-38
2022/12/07 09:30:07;;;;;;;11.75;2.75;;;26.60;50.10;;;;;;4119679;28;20042;-39
2022/12/07 09:32:30;;;;;;;8.88;2.28;;;26.70;49.90;;;;;;4115778;28;20057;-38
2022/12/07 09:34:52;;;;;;;;;;;26.70;50.10;;;;;;4119067;28;20038;-44
2022/12/07 09:37:15;;;;;;;8.70;2.20;;;26.70;50.20;;;;;;4115042;28;19914;-37
2022/12/07 09:39:41;;;;;;;12.45;1.98;;;26.70;50.70;;;;;;4121366;28;20457;-39
2022/12/07 09:42:05;;;;;;;8.07;1.98;;;26.70;50.60;;;;;;4118333;28;20790;-42
2022/12/07 09:44:28;;;;;;;8.38;2.08;;;26.80;50.70;;;;;;4113429;28;20333;-37
2022/12/07 09:46:52;;;;;;;11.43;2.50;;;26.80;50.80;;;;;;4105370;28;20222;-44
2022/12/07 09:49:21;;;;;;;17.02;1.70;;;26.80;50.90;;;;;;4115584;28;20049;-41
2022/12/07 09:51:43;;;;;;;9.52;1.40;;;26.70;50.40;;;;;;4117517;28;20429;-41
2022/12/07 09:54:06;;;;;;;6.73;1.73;;;26.60;50.20;;;;;;4120846;28;20065;-41
2022/12/07 09:56:31;;;;;;;2.92;1.30;;;26.60;50.10;;;;;;4116950;28;20038;-44
2022/12/07 09:59:02;;;;;;;5.70;1.27;;;26.60;50.20;;;;;;4119937;28;20038;-43
2022/12/07 10:01:25;;;;;;;3.47;1.00;;;26.50;50.50;;;;;;4119998;28;20446;-42
2022/12/07 10:04:03;;;;;;;1.77;0.90;;;26.50;49.70;;;;;;4121804;28;20342;-42
2022/12/07 10:06:25;;;;;;;4.10;1.02;;;26.40;49.50;;;;;;4120554;28;20443;-42
2022/12/07 10:08:48;;;;;;;2.42;1.00;;;26.40;49.50;;;;;;4116270;28;20031;-41
2022/12/07 10:11:11;;;;;;;2.25;1.13;;;26.40;49.30;;;;;;4113352;28;20034;-40
2022/12/07 10:13:39;;;;;;;3.13;1.00;;;26.30;49.20;;;;;;4111710;28;20414;-43
2022/12/07 10:16:01;;;;;;;3.22;1.10;;;26.40;49.20;;;;;;4116018;28;20144;-42
2022/12/07 10:18:33;;;;;;;2.05;0.80;;;26.30;49.10;;;;;;4115381;28;20060;-41
2022/12/07 10:21:13;;;;;;;3.25;1.10;;;26.30;49.20;;;;;;4115431;28;20042;-40
2022/12/07 10:23:37;;;;;;;6.28;1.20;;;26.30;49.20;;;;;;4116316;28;21058;-40
2022/12/07 10:26:16;;;;;;;2.25;0.90;;;26.30;49.20;;;;;;4116475;28;20145;-44
2022/12/07 10:28:39;;;;;;;3.97;1.00;;;26.30;49.20;;;;;;4117079;28;20050;-46
2022/12/07 10:31:15;;;;;;;3.30;1.13;;;26.20;49.20;;;;;;4117881;28;20088;-45
2022/12/07 10:33:49;;;;;;;5.05;0.93;;;26.20;49.20;;;;;;4116943;28;20054;-47
2022/12/07 10:36:27;;;;;;;3.80;1.08;;;26.20;49.40;;;;;;4116534;28;20038;-47
2022/12/07 10:39:00;;;;;;;4.55;0.75;;;26.20;49.50;;;;;;4116879;28;20506;-42
2022/12/07 10:41:23;;;;;;;3.63;1.05;;;26.20;49.40;;;;;;4114748;28;20065;-44
2022/12/07 10:43:51;;;;;;;0.95;0.60;;;26.20;49.20;;;;;;4116950;28;20050;-46
2022/12/07 10:46:37;;;;;;;3.08;0.90;;;26.20;49.20;;;;;;4115489;28;20046;-46
2022/12/07 10:49:31;;;;;;;1.15;0.73;;;26.20;49.10;;;;;;4117059;28;20046;-42
2022/12/07 10:52:13;;;;;;;1.73;0.93;;;26.20;49.00;;;;;;4118733;28;20046;-45
2022/12/07 10:54:48;;;;;;;4.90;1.20;;;26.20;48.60;;;;;;4118912;28;20395;-40
2022/12/07 10:57:19;;;;;;;5.18;1.13;;;26.10;48.00;;;;;;4117415;28;20034;-41
2022/12/07 10:59:58;;;;;;;2.03;1.20;;;26.10;47.80;;;;;;4128870;28;20046;-43
2022/12/07 11:02:50;;;;;;;1.83;0.90;;;26.10;47.80;;;;;;4117610;28;20038;-44
2022/12/07 11:05:25;;;;;;;3.05;1.00;;;26.00;47.80;;;;;;4117859;28;20054;-45
2022/12/07 11:07:59;;;;;;;6.78;1.20;;;26.00;48.10;;;;;;4118840;28;20046;-47
2022/12/07 11:10:27;;;;;;;;;;;26.00;48.10;;;;;;4122627;28;20535;-44
2022/12/07 11:13:04;;;;;;;2.30;1.02;;;26.00;47.90;;;;;;4116940;28;19961;-48
2022/12/07 11:15:50;;;;;;;5.55;1.17;;;26.00;47.60;;;;;;4104358;28;20497;-41
2022/12/07 11:18:40;;;;;;;2.45;1.05;;;26.00;47.60;;;;;;4118304;28;20061;-44
2022/12/07 11:21:27;;;;;;;3.75;1.40;;;26.00;48.20;;;;;;4120008;28;20168;-43
2022/12/07 11:23:55;;;;;;;1.70;1.13;;;26.00;48.20;;;;;;4118992;28;20045;-42
2022/12/07 11:26:38;;;;;;;1.77;1.00;;;26.00;47.80;;;;;;4120302;28;20041;-45
2022/12/07 11:29:09;;;;;;;4.05;0.88;;;25.90;47.10;;;;;;4118887;28;20104;-46
2022/12/07 11:32:08;;;;;;;2.53;1.10;;;25.90;47.20;;;;;;4120737;28;20185;-50
2022/12/07 11:34:37;;;;;;;2.70;1.33;;;25.80;47.80;;;;;;4118913;28;20494;-49
2022/12/07 11:37:04;;;;;;;4.97;1.35;;;25.80;48.60;;;;;;4116097;28;20044;-46
2022/12/07 11:39:49;;;;;;;4.93;1.60;;;25.80;48.40;;;;;;4117286;28;20073;-48
2022/12/07 11:42:27;;;;;;;8.23;1.50;;;25.80;48.40;;;;;;4119989;28;20345;-46
2022/12/07 11:45:16;;;;;;;1.48;0.90;;;25.80;48.60;;;;;;4116807;28;20065;-35
2022/12/07 11:47:49;;;;;;;2.08;0.80;;;25.80;47.80;;;;;;4118168;28;20050;-51
2022/12/07 11:50:33;;;;;;;5.03;1.20;;;25.70;47.60;;;;;;4120346;28;20191;-54
2022/12/07 11:53:16;;;;;;;6.72;1.20;;;25.70;47.60;;;;;;4115257;28;20442;-45
2022/12/07 11:55:44;;;;;;;8.50;1.38;;;25.60;47.40;;;;;;4121850;28;20038;-47
2022/12/07 11:58:38;;;;;;;6.05;1.05;;;25.60;47.40;;;;;;4121244;28;20089;-46
2022/12/07 12:01:42;;;;;;;4.00;0.98;;;25.60;47.50;;;;;;4121498;28;20338;-45
2022/12/07 12:04:19;;;;;;;3.47;0.88;;;25.60;47.50;;;;;;4054136;29;20036;-46
2022/12/07 12:06:44;;;;;;;5.28;1.05;;;25.60;47.70;;;;;;4121153;28;20046;-46
2022/12/07 12:09:13;;;;;;;5.57;1.00;;;25.60;47.60;;;;;;4119296;28;20030;-52
2022/12/07 12:11:50;;;;;;;4.88;0.90;;;25.60;47.50;;;;;;4120029;28;20065;-47
2022/12/07 12:14:30;;;;;;;2.33;0.70;;;25.60;47.50;;;;;;4122354;28;20038;-44
2022/12/07 12:17:10;;;;;;;0.95;0.65;;;25.60;46.90;;;;;;4123931;28;20041;-43
2022/12/07 12:19:56;;;;;;;1.85;0.77;;;25.60;47.00;;;;;;4119589;28;20072;-51
2022/12/07 12:22:20;;;;;;;4.43;0.95;;;25.50;46.90;;;;;;4121949;28;20117;-45
2022/12/07 12:24:46;;;;;;;13.45;1.35;;;25.60;47.00;;;;;;4121294;28;20081;-48
2022/12/07 12:27:31;;;;;;;7.40;1.23;;;25.50;47.20;;;;;;4120134;28;20520;-48
2022/12/07 12:29:59;;;;;;;12.27;0.82;;;25.50;47.10;;;;;;4123377;28;20041;-45
2022/12/07 12:32:29;;;;;;;5.07;0.95;;;25.50;47.30;;;;;;4120040;28;20073;-45
2022/12/07 12:34:59;;;;;;;7.82;0.85;;;25.50;47.40;;;;;;4122644;28;20092;-47
2022/12/07 12:37:34;;;;;;;4.95;0.73;;;25.50;47.60;;;;;;4121614;28;20414;-47
2022/12/07 12:40:15;;;;;;;6.25;0.82;;;25.50;47.80;;;;;;4118499;28;20054;-47
2022/12/07 12:42:51;;;;;;;5.18;0.80;;;25.50;48.10;;;;;;4123746;28;20030;-50
2022/12/07 12:45:24;;;;;;;4.40;1.10;;;25.50;48.30;;;;;;4118099;28;20337;-51
2022/12/07 12:48:03;;;;;;;1.38;0.70;;;25.50;48.40;;;;;;4122811;28;20046;-45
2022/12/07 12:50:29;;;;;;;1.35;0.77;;;25.60;48.60;;;;;;4119039;28;20529;-47
2022/12/07 12:53:22;;;;;;;4.82;0.70;;;25.50;48.70;;;;;;4121342;28;20054;-44